sensor_id;sensor_type;location;lat;lon;timestamp;pressure;altitude;pressure_sealevel;temperature;humidity
49585;BME280;35491;49.142;9.210;2023-02-18T00:01:47;100719.88;;;12.83;68.86
49585;BME280;35491;49.142;9.210;2023-02-18T00:50:13;100728.91;;;12.91;68.45
49585;BME280;35491;49.142;9.210;2023-02-18T00:51:18;100724.09;;;12.85;68.54
49585;BME280;35491;49.142;9.210;2023-02-18T02:00:39;100706.50;;;12.73;68.74
49585;BME280;35491;49.142;9.210;2023-02-18T02:01:48;100697.19;;;12.67;69.02
49585;BME280;35491;49.142;9.210;2023-02-18T02:03:14;100692.63;;;12.68;68.94
49585;BME280;35491;49.142;9.210;2023-02-18T02:13:52;100679.22;;;12.68;68.87
49585;BME280;35491;49.142;9.210;2023-02-18T02:15:05;100680.81;;;12.70;68.61
49585;BME280;35491;49.142;9.210;2023-02-18T02:20:47;100686.72;;;12.64;68.61
49585;BME280;35491;49.142;9.210;2023-02-18T02:30:26;100682.50;;;12.61;68.54
49585;BME280;35491;49.142;9.210;2023-02-18T02:33:33;100674.56;;;12.70;68.33
49585;BME280;35491;49.142;9.210;2023-02-18T02:34:49;100675.28;;;12.62;68.34
49585;BME280;35491;49.142;9.210;2023-02-18T02:35:53;100680.53;;;12.63;68.65
49585;BME280;35491;49.142;9.210;2023-02-18T02:37:08;100672.47;;;12.63;68.44
49585;BME280;35491;49.142;9.210;2023-02-18T02:38:13;100675.88;;;12.66;68.18
49585;BME280;35491;49.142;9.210;2023-02-18T02:39:20;100677.84;;;12.63;68.41
49585;BME280;35491;49.142;9.210;2023-02-18T02:40:28;100682.91;;;12.67;68.49
49585;BME280;35491;49.142;9.210;2023-02-18T02:41:40;100667.81;;;12.66;68.55
49585;BME280;35491;49.142;9.210;2023-02-18T02:42:45;100667.09;;;12.63;68.43
49585;BME280;35491;49.142;9.210;2023-02-18T02:43:52;100668.81;;;12.64;68.48
49585;BME280;35491;49.142;9.210;2023-02-18T02:44:57;100657.22;;;12.64;68.65
49585;BME280;35491;49.142;9.210;2023-02-18T02:46:05;100664.44;;;12.63;68.50
49585;BME280;35491;49.142;9.210;2023-02-18T02:47:10;100670.50;;;12.66;68.52
49585;BME280;35491;49.142;9.210;2023-02-18T02:48:15;100663.44;;;12.64;68.71
49585;BME280;35491;49.142;9.210;2023-02-18T02:49:23;100665.69;;;12.59;68.61
49585;BME280;35491;49.142;9.210;2023-02-18T02:50:34;100662.72;;;12.62;68.53
49585;BME280;35491;49.142;9.210;2023-02-18T02:51:39;100654.69;;;12.62;68.64
49585;BME280;35491;49.142;9.210;2023-02-18T02:52:45;100659.63;;;12.57;68.98
49585;BME280;35491;49.142;9.210;2023-02-18T02:53:47;100659.50;;;12.59;68.61
49585;BME280;35491;49.142;9.210;2023-02-18T02:54:51;100659.19;;;12.62;68.81
49585;BME280;35491;49.142;9.210;2023-02-18T02:55:52;100648.75;;;12.59;68.74
49585;BME280;35491;49.142;9.210;2023-02-18T02:57:07;100655.81;;;12.60;68.57
49585;BME280;35491;49.142;9.210;2023-02-18T02:58:09;100652.84;;;12.63;68.12
49585;BME280;35491;49.142;9.210;2023-02-18T02:59:20;100660.31;;;12.59;68.42
49585;BME280;35491;49.142;9.210;2023-02-18T03:00:26;100650.72;;;12.67;68.08
49585;BME280;35491;49.142;9.210;2023-02-18T03:01:35;100657.22;;;12.64;68.28
49585;BME280;35491;49.142;9.210;2023-02-18T03:02:45;100644.50;;;12.66;68.46
49585;BME280;35491;49.142;9.210;2023-02-18T03:04:00;100646.47;;;12.74;68.06
49585;BME280;35491;49.142;9.210;2023-02-18T03:05:09;100643.25;;;12.70;68.16
49585;BME280;35491;49.142;9.210;2023-02-18T03:06:26;100639.72;;;12.60;68.55
49585;BME280;35491;49.142;9.210;2023-02-18T03:07:41;100639.31;;;12.64;68.43
49585;BME280;35491;49.142;9.210;2023-02-18T03:08:50;100633.06;;;12.64;68.16
49585;BME280;35491;49.142;9.210;2023-02-18T03:10:00;100634.22;;;12.61;68.37
49585;BME280;35491;49.142;9.210;2023-02-18T03:11:10;100632.38;;;12.62;68.02
49585;BME280;35491;49.142;9.210;2023-02-18T03:12:17;100640.56;;;12.60;68.25
49585;BME280;35491;49.142;9.210;2023-02-18T03:13:25;100649.31;;;12.62;68.01
49585;BME280;35491;49.142;9.210;2023-02-18T03:14:31;100641.41;;;12.71;67.70
49585;BME280;35491;49.142;9.210;2023-02-18T03:15:37;100634.63;;;12.67;67.98
49585;BME280;35491;49.142;9.210;2023-02-18T03:16:43;100640.28;;;12.63;68.21
49585;BME280;35491;49.142;9.210;2023-02-18T03:17:47;100630.13;;;12.57;68.26
49585;BME280;35491;49.142;9.210;2023-02-18T03:18:56;100640.13;;;12.65;68.21
49585;BME280;35491;49.142;9.210;2023-02-18T03:20:02;100641.69;;;12.68;68.12
49585;BME280;35491;49.142;9.210;2023-02-18T03:21:07;100641.72;;;12.58;68.01
49585;BME280;35491;49.142;9.210;2023-02-18T03:22:15;100632.66;;;12.59;68.11
49585;BME280;35491;49.142;9.210;2023-02-18T03:23:22;100645.94;;;12.60;68.41
49585;BME280;35491;49.142;9.210;2023-02-18T03:24:26;100642.84;;;12.55;68.19
49585;BME280;35491;49.142;9.210;2023-02-18T03:25:32;100635.22;;;12.51;68.82
49585;BME280;35491;49.142;9.210;2023-02-18T03:26:35;100633.66;;;12.58;68.44
49585;BME280;35491;49.142;9.210;2023-02-18T03:27:41;100629.00;;;12.50;68.50
49585;BME280;35491;49.142;9.210;2023-02-18T03:28:44;100646.34;;;12.56;68.46
49585;BME280;35491;49.142;9.210;2023-02-18T03:29:50;100650.47;;;12.50;69.06
49585;BME280;35491;49.142;9.210;2023-02-18T03:30:53;100638.03;;;12.49;69.19
49585;BME280;35491;49.142;9.210;2023-02-18T03:32:00;100634.94;;;12.44;69.28
49585;BME280;35491;49.142;9.210;2023-02-18T03:33:03;100644.81;;;12.43;69.89
49585;BME280;35491;49.142;9.210;2023-02-18T03:34:08;100648.91;;;12.47;69.62
49585;BME280;35491;49.142;9.210;2023-02-18T03:35:12;100652.44;;;12.48;69.68
49585;BME280;35491;49.142;9.210;2023-02-18T03:36:16;100646.38;;;12.46;69.53
49585;BME280;35491;49.142;9.210;2023-02-18T03:37:21;100642.41;;;12.50;69.72
49585;BME280;35491;49.142;9.210;2023-02-18T03:38:27;100634.94;;;12.44;69.73
49585;BME280;35491;49.142;9.210;2023-02-18T03:39:31;100649.34;;;12.43;69.61
49585;BME280;35491;49.142;9.210;2023-02-18T03:40:36;100643.13;;;12.42;69.76
49585;BME280;35491;49.142;9.210;2023-02-18T03:41:39;100641.16;;;12.35;70.18
49585;BME280;35491;49.142;9.210;2023-02-18T03:42:42;100646.22;;;12.38;69.85
49585;BME280;35491;49.142;9.210;2023-02-18T03:43:48;100649.50;;;12.41;69.58
49585;BME280;35491;49.142;9.210;2023-02-18T03:44:51;100658.94;;;12.36;70.07
49585;BME280;35491;49.142;9.210;2023-02-18T03:45:52;100657.25;;;12.35;70.05
49585;BME280;35491;49.142;9.210;2023-02-18T03:46:56;100661.47;;;12.37;70.13
49585;BME280;35491;49.142;9.210;2023-02-18T03:47:57;100654.41;;;12.36;69.85
49585;BME280;35491;49.142;9.210;2023-02-18T03:49:01;100655.28;;;12.37;69.86
49585;BME280;35491;49.142;9.210;2023-02-18T03:50:02;100645.53;;;12.36;70.12
49585;BME280;35491;49.142;9.210;2023-02-18T03:51:06;100653.03;;;12.32;70.22
49585;BME280;35491;49.142;9.210;2023-02-18T03:52:07;100646.22;;;12.38;70.17
49585;BME280;35491;49.142;9.210;2023-02-18T03:53:14;100638.19;;;12.38;70.35
49585;BME280;35491;49.142;9.210;2023-02-18T03:54:15;100638.75;;;12.31;70.27
49585;BME280;35491;49.142;9.210;2023-02-18T03:55:19;100635.81;;;12.35;70.03
49585;BME280;35491;49.142;9.210;2023-02-18T03:56:21;100635.81;;;12.35;70.04
49585;BME280;35491;49.142;9.210;2023-02-18T03:57:25;100633.13;;;12.35;70.43
49585;BME280;35491;49.142;9.210;2023-02-18T03:58:26;100638.88;;;12.40;70.24
49585;BME280;35491;49.142;9.210;2023-02-18T03:59:29;100624.38;;;12.32;70.36
49585;BME280;35491;49.142;9.210;2023-02-18T04:00:30;100632.38;;;12.42;70.36
49585;BME280;35491;49.142;9.210;2023-02-18T04:01:34;100630.13;;;12.47;69.67
49585;BME280;35491;49.142;9.210;2023-02-18T04:02:35;100628.31;;;12.38;70.33
49585;BME280;35491;49.142;9.210;2023-02-18T04:03:39;100620.84;;;12.32;70.72
49585;BME280;35491;49.142;9.210;2023-02-18T04:04:40;100618.28;;;12.30;70.67
49585;BME280;35491;49.142;9.210;2023-02-18T04:05:44;100622.81;;;12.30;71.18
49585;BME280;35491;49.142;9.210;2023-02-18T04:06:45;100623.97;;;12.27;71.14
49585;BME280;35491;49.142;9.210;2023-02-18T04:07:49;100620.41;;;12.27;71.16
49585;BME280;35491;49.142;9.210;2023-02-18T04:08:52;100626.63;;;12.37;70.72
49585;BME280;35491;49.142;9.210;2023-02-18T04:09:56;100634.53;;;12.29;71.26
49585;BME280;35491;49.142;9.210;2023-02-18T04:10:58;100624.22;;;12.24;71.72
49585;BME280;35491;49.142;9.210;2023-02-18T04:12:02;100633.84;;;12.17;71.93
49585;BME280;35491;49.142;9.210;2023-02-18T04:13:03;100624.50;;;12.21;71.90
49585;BME280;35491;49.142;9.210;2023-02-18T04:14:07;100624.38;;;12.23;71.79
49585;BME280;35491;49.142;9.210;2023-02-18T04:15:08;100626.75;;;12.26;71.79
49585;BME280;35491;49.142;9.210;2023-02-18T04:16:13;100636.91;;;12.22;71.50
49585;BME280;35491;49.142;9.210;2023-02-18T04:17:14;100634.97;;;12.24;71.64
49585;BME280;35491;49.142;9.210;2023-02-18T04:18:18;100633.94;;;12.35;71.45
49585;BME280;35491;49.142;9.210;2023-02-18T04:19:19;100632.69;;;12.29;71.28
49585;BME280;35491;49.142;9.210;2023-02-18T04:20:23;100642.72;;;12.27;71.39
49585;BME280;35491;49.142;9.210;2023-02-18T04:21:24;100648.09;;;12.27;71.93
49585;BME280;35491;49.142;9.210;2023-02-18T04:22:28;100639.88;;;12.19;72.11
49585;BME280;35491;49.142;9.210;2023-02-18T04:23:29;100632.69;;;12.20;71.98
49585;BME280;35491;49.142;9.210;2023-02-18T04:24:35;100630.00;;;12.29;71.76
49585;BME280;35491;49.142;9.210;2023-02-18T04:25:37;100637.63;;;12.24;71.81
49585;BME280;35491;49.142;9.210;2023-02-18T04:26:40;100641.00;;;12.16;72.21
49585;BME280;35491;49.142;9.210;2023-02-18T04:27:41;100630.84;;;12.20;72.07
49585;BME280;35491;49.142;9.210;2023-02-18T04:28:45;100626.19;;;12.22;71.62
49585;BME280;35491;49.142;9.210;2023-02-18T04:29:46;100637.47;;;12.26;71.90
49585;BME280;35491;49.142;9.210;2023-02-18T04:30:50;100647.25;;;12.37;71.37
49585;BME280;35491;49.142;9.210;2023-02-18T04:31:51;100647.06;;;12.28;71.53
49585;BME280;35491;49.142;9.210;2023-02-18T04:32:55;100641.44;;;12.41;71.34
49585;BME280;35491;49.142;9.210;2023-02-18T04:33:56;100635.09;;;12.32;71.17
49585;BME280;35491;49.142;9.210;2023-02-18T04:35:00;100646.25;;;12.28;71.55
49585;BME280;35491;49.142;9.210;2023-02-18T04:36:01;100626.75;;;12.26;71.61
49585;BME280;35491;49.142;9.210;2023-02-18T04:37:04;100638.03;;;12.29;71.25
49585;BME280;35491;49.142;9.210;2023-02-18T04:38:08;100645.09;;;12.30;71.40
49585;BME280;35491;49.142;9.210;2023-02-18T04:39:10;100641.16;;;12.35;70.94
49585;BME280;35491;49.142;9.210;2023-02-18T04:40:16;100643.97;;;12.33;71.24
49585;BME280;35491;49.142;9.210;2023-02-18T04:41:17;100644.97;;;12.42;70.74
49585;BME280;35491;49.142;9.210;2023-02-18T04:42:21;100643.84;;;12.35;70.82
49585;BME280;35491;49.142;9.210;2023-02-18T04:43:22;100644.69;;;12.45;70.83
49585;BME280;35491;49.142;9.210;2023-02-18T04:44:26;100641.88;;;12.37;71.01
49585;BME280;35491;49.142;9.210;2023-02-18T04:45:27;100644.81;;;12.33;70.74
49585;BME280;35491;49.142;9.210;2023-02-18T04:46:31;100651.19;;;12.32;70.91
49585;BME280;35491;49.142;9.210;2023-02-18T04:47:32;100641.44;;;12.31;70.88
49585;BME280;35491;49.142;9.210;2023-02-18T04:48:36;100647.34;;;12.35;71.21
49585;BME280;35491;49.142;9.210;2023-02-18T04:49:37;100643.53;;;12.38;70.86
49585;BME280;35491;49.142;9.210;2023-02-18T04:50:41;100643.13;;;12.32;71.26
49585;BME280;35491;49.142;9.210;2023-02-18T04:51:44;100647.34;;;12.35;70.99
49585;BME280;35491;49.142;9.210;2023-02-18T04:52:48;100646.22;;;12.38;71.28
49585;BME280;35491;49.142;9.210;2023-02-18T04:53:49;100649.63;;;12.40;71.06
49585;BME280;35491;49.142;9.210;2023-02-18T04:54:54;100640.59;;;12.41;70.79
49585;BME280;35491;49.142;9.210;2023-02-18T04:55:57;100649.63;;;12.40;70.90
49585;BME280;35491;49.142;9.210;2023-02-18T04:57:01;100656.25;;;12.45;70.47
49585;BME280;35491;49.142;9.210;2023-02-18T04:58:02;100639.59;;;12.42;71.00
49585;BME280;35491;49.142;9.210;2023-02-18T04:59:06;100654.44;;;12.46;71.05
49585;BME280;35491;49.142;9.210;2023-02-18T05:00:08;100646.22;;;12.47;71.02
49585;BME280;35491;49.142;9.210;2023-02-18T05:01:12;100644.25;;;12.40;71.28
49585;BME280;35491;49.142;9.210;2023-02-18T05:02:13;100643.13;;;12.42;71.29
49585;BME280;35491;49.142;9.210;2023-02-18T05:03:17;100639.72;;;12.50;71.12
49585;BME280;35491;49.142;9.210;2023-02-18T05:04:18;100643.84;;;12.54;71.12
49585;BME280;35491;49.142;9.210;2023-02-18T05:05:22;100635.94;;;12.43;71.75
49585;BME280;35491;49.142;9.210;2023-02-18T05:06:31;100644.13;;;12.41;71.69
49585;BME280;35491;49.142;9.210;2023-02-18T05:07:35;100632.53;;;12.41;72.04
49585;BME280;35491;49.142;9.210;2023-02-18T05:08:44;100632.53;;;12.41;71.81
49585;BME280;35491;49.142;9.210;2023-02-18T05:09:47;100632.69;;;12.39;71.46
49585;BME280;35491;49.142;9.210;2023-02-18T05:10:51;100631.00;;;12.28;71.69
49585;BME280;35491;49.142;9.210;2023-02-18T05:11:58;100631.84;;;12.29;72.17
49585;BME280;35491;49.142;9.210;2023-02-18T05:13:01;100631.28;;;12.25;71.81
49585;BME280;35491;49.142;9.210;2023-02-18T05:14:04;100623.97;;;12.27;71.72
49585;BME280;35491;49.142;9.210;2023-02-18T05:15:08;100633.53;;;12.30;71.46
49585;BME280;35491;49.142;9.210;2023-02-18T05:16:11;100635.09;;;12.32;71.26
49585;BME280;35491;49.142;9.210;2023-02-18T05:17:14;100634.09;;;12.33;70.84
49585;BME280;35491;49.142;9.210;2023-02-18T05:18:16;100624.38;;;12.32;70.27
49585;BME280;35491;49.142;9.210;2023-02-18T05:19:19;100626.78;;;12.36;70.45
49585;BME280;35491;49.142;9.210;2023-02-18T05:20:20;100621.69;;;12.32;70.16
49585;BME280;35491;49.142;9.210;2023-02-18T05:21:26;100626.78;;;12.36;70.20
49585;BME280;35491;49.142;9.210;2023-02-18T05:22:27;100625.06;;;12.35;70.27
49585;BME280;35491;49.142;9.210;2023-02-18T05:23:32;100632.69;;;12.39;69.97
49585;BME280;35491;49.142;9.210;2023-02-18T05:24:33;100635.50;;;12.38;70.20
49585;BME280;35491;49.142;9.210;2023-02-18T05:25:37;100629.31;;;12.37;70.21
49585;BME280;35491;49.142;9.210;2023-02-18T05:26:38;100623.34;;;12.43;69.63
49585;BME280;35491;49.142;9.210;2023-02-18T05:27:52;100623.22;;;12.45;69.52
49585;BME280;35491;49.142;9.210;2023-02-18T05:28:53;100617.56;;;12.48;69.81
49585;BME280;35491;49.142;9.210;2023-02-18T05:29:58;100624.78;;;12.47;69.77
49585;BME280;35491;49.142;9.210;2023-02-18T05:30:59;100615.31;;;12.43;69.56
49585;BME280;35491;49.142;9.210;2023-02-18T05:32:03;100611.81;;;12.43;69.54
49585;BME280;35491;49.142;9.210;2023-02-18T05:33:04;100625.06;;;12.44;69.47
49585;BME280;35491;49.142;9.210;2023-02-18T05:34:08;100617.31;;;12.41;69.77
49585;BME280;35491;49.142;9.210;2023-02-18T05:35:11;100618.31;;;12.40;69.70
49585;BME280;35491;49.142;9.210;2023-02-18T05:36:24;100612.66;;;12.33;70.00
49585;BME280;35491;49.142;9.210;2023-02-18T05:37:31;100609.00;;;12.35;70.25
49585;BME280;35491;49.142;9.210;2023-02-18T05:38:41;100601.66;;;12.37;70.05
49585;BME280;35491;49.142;9.210;2023-02-18T05:39:47;100612.81;;;12.32;70.21
49585;BME280;35491;49.142;9.210;2023-02-18T05:41:00;100611.66;;;12.35;69.67
49585;BME280;35491;49.142;9.210;2023-02-18T05:42:07;100616.31;;;12.32;69.68
49585;BME280;35491;49.142;9.210;2023-02-18T05:43:25;100618.72;;;12.36;69.56
49585;BME280;35491;49.142;9.210;2023-02-18T05:44:54;100624.22;;;12.34;69.95
49585;BME280;35491;49.142;9.210;2023-02-18T05:46:01;100620.13;;;12.40;69.42
49585;BME280;35491;49.142;9.210;2023-02-18T05:47:15;100620.00;;;12.31;69.62
49585;BME280;35491;49.142;9.210;2023-02-18T05:48:27;100624.38;;;12.32;69.90
49585;BME280;35491;49.142;9.210;2023-02-18T05:49:33;100625.06;;;12.35;69.42
49585;BME280;35491;49.142;9.210;2023-02-18T05:50:42;100625.78;;;12.37;69.30
49585;BME280;35491;49.142;9.210;2023-02-18T05:51:50;100616.44;;;12.41;69.25
49585;BME280;35491;49.142;9.210;2023-02-18T05:53:00;100618.00;;;12.43;69.30
49585;BME280;35491;49.142;9.210;2023-02-18T05:54:07;100624.78;;;12.38;69.20
49585;BME280;35491;49.142;9.210;2023-02-18T05:55:24;100620.44;;;12.37;69.43
49585;BME280;35491;49.142;9.210;2023-02-18T05:56:30;100623.47;;;12.52;69.23
49585;BME280;35491;49.142;9.210;2023-02-18T05:57:35;100627.75;;;12.54;68.99
49585;BME280;35491;49.142;9.210;2023-02-18T05:58:40;100632.81;;;12.47;68.98
49585;BME280;35491;49.142;9.210;2023-02-18T05:59:44;100635.50;;;12.38;69.16
49585;BME280;35491;49.142;9.210;2023-02-18T06:00:48;100631.00;;;12.38;69.18
49585;BME280;35491;49.142;9.210;2023-02-18T06:01:49;100629.56;;;12.34;69.58
49585;BME280;35491;49.142;9.210;2023-02-18T06:02:53;100626.19;;;12.42;69.20
49585;BME280;35491;49.142;9.210;2023-02-18T06:03:54;100630.84;;;12.40;69.51
49585;BME280;35491;49.142;9.210;2023-02-18T06:04:57;100628.44;;;12.46;69.22
49585;BME280;35491;49.142;9.210;2023-02-18T06:05:59;100635.06;;;12.42;69.38
49585;BME280;35491;49.142;9.210;2023-02-18T06:07:02;100627.19;;;12.31;69.53
49585;BME280;35491;49.142;9.210;2023-02-18T06:08:04;100625.34;;;12.31;69.55
49585;BME280;35491;49.142;9.210;2023-02-18T06:09:08;100621.56;;;12.24;69.94
49585;BME280;35491;49.142;9.210;2023-02-18T06:10:09;100630.88;;;12.30;69.50
49585;BME280;35491;49.142;9.210;2023-02-18T06:11:14;100627.63;;;12.26;69.90
49585;BME280;35491;49.142;9.210;2023-02-18T06:12:15;100624.78;;;12.28;69.65
49585;BME280;35491;49.142;9.210;2023-02-18T06:13:19;100624.78;;;12.28;69.58
49585;BME280;35491;49.142;9.210;2023-02-18T06:14:23;100633.25;;;12.33;69.88
49585;BME280;35491;49.142;9.210;2023-02-18T06:15:26;100641.16;;;12.35;69.46
49585;BME280;35491;49.142;9.210;2023-02-18T06:16:28;100631.28;;;12.45;69.28
49585;BME280;35491;49.142;9.210;2023-02-18T06:17:32;100639.16;;;12.46;68.98
49585;BME280;35491;49.142;9.210;2023-02-18T06:18:36;100640.59;;;12.41;69.20
49585;BME280;35491;49.142;9.210;2023-02-18T06:19:37;100635.91;;;12.33;69.57
49585;BME280;35491;49.142;9.210;2023-02-18T06:20:42;100637.06;;;12.40;69.67
49585;BME280;35491;49.142;9.210;2023-02-18T06:21:44;100634.81;;;12.36;69.69
49585;BME280;35491;49.142;9.210;2023-02-18T06:22:47;100626.47;;;12.39;69.30
49585;BME280;35491;49.142;9.210;2023-02-18T06:23:49;100629.56;;;12.34;69.47
49585;BME280;35491;49.142;9.210;2023-02-18T06:24:53;100633.53;;;12.40;69.54
49585;BME280;35491;49.142;9.210;2023-02-18T06:25:55;100634.25;;;12.42;69.27
49585;BME280;35491;49.142;9.210;2023-02-18T06:26:59;100630.84;;;12.40;69.47
49585;BME280;35491;49.142;9.210;2023-02-18T06:28:00;100633.53;;;12.40;69.37
49585;BME280;35491;49.142;9.210;2023-02-18T06:29:04;100629.84;;;12.41;69.30
49585;BME280;35491;49.142;9.210;2023-02-18T06:30:09;100621.69;;;12.32;69.16
49585;BME280;35491;49.142;9.210;2023-02-18T06:31:13;100629.56;;;12.34;69.57
49585;BME280;35491;49.142;9.210;2023-02-18T06:32:14;100627.34;;;12.39;69.14
49585;BME280;35491;49.142;9.210;2023-02-18T06:33:18;100624.78;;;12.38;69.17
49585;BME280;35491;49.142;9.210;2023-02-18T06:34:19;100613.22;;;12.37;69.08
49585;BME280;35491;49.142;9.210;2023-02-18T06:35:23;100626.19;;;12.42;69.17
49585;BME280;35491;49.142;9.210;2023-02-18T06:36:24;100623.09;;;12.37;69.10
49585;BME280;35491;49.142;9.210;2023-02-18T06:37:28;100618.31;;;12.40;69.03
49585;BME280;35491;49.142;9.210;2023-02-18T06:38:29;100618.31;;;12.40;69.13
49585;BME280;35491;49.142;9.210;2023-02-18T06:39:33;100623.34;;;12.43;69.02
49585;BME280;35491;49.142;9.210;2023-02-18T06:40:34;100623.78;;;12.39;68.93
49585;BME280;35491;49.142;9.210;2023-02-18T06:41:37;100618.31;;;12.40;68.96
49585;BME280;35491;49.142;9.210;2023-02-18T06:42:40;100613.06;;;12.39;69.30
49585;BME280;35491;49.142;9.210;2023-02-18T06:43:43;100624.63;;;12.49;69.11
49585;BME280;35491;49.142;9.210;2023-02-18T06:44:45;100613.34;;;12.55;68.81
49585;BME280;35491;49.142;9.210;2023-02-18T06:45:51;100616.16;;;12.54;68.53
49585;BME280;35491;49.142;9.210;2023-02-18T06:46:53;100613.91;;;12.49;68.71
49585;BME280;35491;49.142;9.210;2023-02-18T06:47:57;100616.31;;;12.52;68.66
49585;BME280;35491;49.142;9.210;2023-02-18T06:48:58;100613.78;;;12.41;69.22
49585;BME280;35491;49.142;9.210;2023-02-18T06:50:02;100612.06;;;12.40;69.41
49585;BME280;35491;49.142;9.210;2023-02-18T06:51:04;100615.03;;;12.46;69.28
49585;BME280;35491;49.142;9.210;2023-02-18T06:52:08;100622.25;;;12.46;68.97
49585;BME280;35491;49.142;9.210;2023-02-18T06:53:09;100617.16;;;12.43;69.43
49585;BME280;35491;49.142;9.210;2023-02-18T06:54:14;100611.09;;;12.41;69.33
49585;BME280;35491;49.142;9.210;2023-02-18T06:55:15;100617.00;;;12.44;69.25
49585;BME280;35491;49.142;9.210;2023-02-18T06:56:19;100610.25;;;12.40;69.41
49585;BME280;35491;49.142;9.210;2023-02-18T06:57:20;100602.22;;;12.40;69.01
49585;BME280;35491;49.142;9.210;2023-02-18T06:58:24;100610.66;;;12.45;68.94
49585;BME280;35491;49.142;9.210;2023-02-18T06:59:25;100613.50;;;12.44;68.96
49585;BME280;35491;49.142;9.210;2023-02-18T07:00:29;100613.50;;;12.44;69.00
49585;BME280;35491;49.142;9.210;2023-02-18T07:01:33;100603.91;;;12.41;68.85
49585;BME280;35491;49.142;9.210;2023-02-18T07:02:36;100608.97;;;12.44;68.72
49585;BME280;35491;49.142;9.210;2023-02-18T07:03:37;100610.38;;;12.39;69.21
49585;BME280;35491;49.142;9.210;2023-02-18T07:04:41;100601.78;;;12.45;68.80
49585;BME280;35491;49.142;9.210;2023-02-18T07:05:45;100609.69;;;12.46;69.10
49585;BME280;35491;49.142;9.210;2023-02-18T07:06:48;100605.84;;;12.49;68.88
49585;BME280;35491;49.142;9.210;2023-02-18T07:07:50;100604.47;;;12.45;69.06
49585;BME280;35491;49.142;9.210;2023-02-18T07:08:54;100614.63;;;12.41;68.82
49585;BME280;35491;49.142;9.210;2023-02-18T07:09:56;100610.25;;;12.40;68.81
49585;BME280;35491;49.142;9.210;2023-02-18T07:11:00;100607.16;;;12.45;69.00
49585;BME280;35491;49.142;9.210;2023-02-18T07:12:01;100606.16;;;12.46;68.40
49585;BME280;35491;49.142;9.210;2023-02-18T07:13:05;100608.53;;;12.49;68.45
49585;BME280;35491;49.142;9.210;2023-02-18T07:14:06;100607.56;;;12.50;68.54
49585;BME280;35491;49.142;9.210;2023-02-18T07:15:10;100605.44;;;12.54;68.48
49585;BME280;35491;49.142;9.210;2023-02-18T07:16:11;100610.22;;;12.50;68.51
49585;BME280;35491;49.142;9.210;2023-02-18T07:17:17;100610.38;;;12.48;68.76
49585;BME280;35491;49.142;9.210;2023-02-18T07:18:22;100606.16;;;12.46;68.68
49585;BME280;35491;49.142;9.210;2023-02-18T07:19:26;100602.03;;;12.52;68.62
49585;BME280;35491;49.142;9.210;2023-02-18T07:20:28;100600.78;;;12.56;68.09
49585;BME280;35491;49.142;9.210;2023-02-18T07:21:32;100591.19;;;12.53;68.00
49585;BME280;35491;49.142;9.210;2023-02-18T07:22:34;100589.75;;;12.49;68.22
49585;BME280;35491;49.142;9.210;2023-02-18T07:23:38;100589.75;;;12.49;68.22
49585;BME280;35491;49.142;9.210;2023-02-18T07:24:41;100586.97;;;12.51;67.95
49585;BME280;35491;49.142;9.210;2023-02-18T07:25:45;100584.97;;;12.53;68.05
49585;BME280;35491;49.142;9.210;2023-02-18T07:26:46;100585.81;;;12.53;67.73
49585;BME280;35491;49.142;9.210;2023-02-18T07:27:50;100578.16;;;12.58;67.71
49585;BME280;35491;49.142;9.210;2023-02-18T07:28:51;100583.84;;;12.55;67.88
49585;BME280;35491;49.142;9.210;2023-02-18T07:33:10;100572.13;;;12.56;67.67
49585;BME280;35491;49.142;9.210;2023-02-18T07:34:14;100571.13;;;12.57;67.49
49585;BME280;35491;49.142;9.210;2023-02-18T07:35:15;100564.38;;;12.53;67.53
49585;BME280;35491;49.142;9.210;2023-02-18T07:36:21;100565.75;;;12.57;67.32
49585;BME280;35491;49.142;9.210;2023-02-18T07:37:22;100565.75;;;12.57;67.35
49585;BME280;35491;49.142;9.210;2023-02-18T07:38:28;100574.81;;;12.56;67.67
49585;BME280;35491;49.142;9.210;2023-02-18T08:35:54;100544.69;;;13.28;61.89
49585;BME280;35491;49.142;9.210;2023-02-18T08:38:41;100554.44;;;13.39;61.54
49585;BME280;35491;49.142;9.210;2023-02-18T08:39:55;100554.44;;;13.39;61.40
49585;BME280;35491;49.142;9.210;2023-02-18T08:41:02;100556.38;;;13.37;61.61
49585;BME280;35491;49.142;9.210;2023-02-18T08:42:05;100556.13;;;13.40;61.32
49585;BME280;35491;49.142;9.210;2023-02-18T08:43:33;100561.25;;;13.51;61.25
49585;BME280;35491;49.142;9.210;2023-02-18T08:44:35;100558.19;;;13.46;60.95
49585;BME280;35491;49.142;9.210;2023-02-18T08:45:53;100554.44;;;13.39;61.49
49585;BME280;35491;49.142;9.210;2023-02-18T08:46:54;100553.13;;;13.43;61.18
49585;BME280;35491;49.142;9.210;2023-02-18T08:49:06;100552.44;;;13.41;61.53
49585;BME280;35491;49.142;9.210;2023-02-18T08:50:11;100547.06;;;13.41;61.20
49585;BME280;35491;49.142;9.210;2023-02-18T08:51:16;100547.06;;;13.41;61.22
49585;BME280;35491;49.142;9.210;2023-02-18T08:52:25;100556.91;;;13.50;60.79
49585;BME280;35491;49.142;9.210;2023-02-18T08:53:50;100548.97;;;13.49;60.88
49585;BME280;35491;49.142;9.210;2023-02-18T08:55:17;100553.97;;;13.44;61.09
49585;BME280;35491;49.142;9.210;2023-02-18T08:56:22;100563.31;;;13.39;61.29
49585;BME280;35491;49.142;9.210;2023-02-18T08:59:32;100549.44;;;13.44;61.38
49585;BME280;35491;49.142;9.210;2023-02-18T09:01:12;100549.44;;;13.44;61.26
49585;BME280;35491;49.142;9.210;2023-02-18T09:07:29;100554.91;;;13.52;60.75
49585;BME280;35491;49.142;9.210;2023-02-18T09:08:45;100545.75;;;13.45;60.95
49585;BME280;35491;49.142;9.210;2023-02-18T09:09:56;100545.00;;;13.53;61.05
49585;BME280;35491;49.142;9.210;2023-02-18T09:25:51;100537.41;;;13.48;61.61